Valle Di Andalusia — IBTJ — position and weather

sailwx.info

Track history (hours):
 
Tides and Currents Weather Stations Pressure Air Temp Water Temp Dewpoint Dewpoint Depression Visibility Wind Speed Wind Dir Waves Ship Positions

Valle Di Andalusia

Last reported at 2017-Mar-28 21:34 UTC. Time now 2017-Mar-28 21:34 UTC.
Position N 51°10' E 001°54'.

Length 176 m; draft 9.6 m.

Type: Ship (hazmat cat D). MMSI: 247046200.

Date/timePositionNaut miles runAvg speedWind from/ knotsBaromVisibWave heightAir tempDewpointWater temp
2017-Mar-28 21:34N 51°10' E 001°54'1010.3
2017-Mar-28 20:33N 51°04' E 001°41'10 9.6
2017-Mar-28 19:34N 50°57' E 001°30'10 9.7
2017-Mar-28 18:33N 50°48' E 001°26'2410.3
2017-Mar-28 16:12N 50°30' E 001°00'711.1
2017-Mar-28 15:32N 50°28' E 000°49'2211.2
2017-Mar-28 13:33N 50°22' E 000°15'1211.5
2017-Mar-28 12:33N 50°19' W 000°02'1212.1
2017-Mar-28 11:33N 50°16' W 000°20'1313.1
2017-Mar-28 10:34N 50°13' W 000°40'3115.5
2017-Mar-28 08:33N 50°04' W 001°26'1716.7
2017-Mar-28 07:33N 49°60' W 001°52'4615.1
2017-Mar-28 04:30N 49°46' W 002°60'1313.6
2017-Mar-28 03:31N 49°39' W 003°18'8411.8
2017-Mar-27 20:25N 48°56' W 005°09'1011.6
2017-Mar-27 19:32N 48°51' W 005°22'1212.0
2017-Mar-27 18:32N 48°45' W 005°37'60013.1
2017-Mar-25 20:33N 39°14' W 009°57'1212.4
2017-Mar-25 19:33N 39°02' W 009°57'1312.7
2017-Mar-25 18:33N 38°49' W 009°57'1212.4
2017-Mar-25 17:33N 38°37' W 009°55'1212.3
2017-Mar-25 16:33N 38°25' W 009°52'1212.1
2017-Mar-25 15:33N 38°13' W 009°48'3511.7
2017-Mar-25 12:31N 37°39' W 009°38'21710.9
2017-Mar-24 16:33N 35°58' W 005°37'1211.8
2017-Mar-24 15:33N 36°01' W 005°23'  
2017-Mar-22 08:29N 38°48' E 008°49'1512.6
2017-Mar-22 07:20N 38°56' E 009°04'911.7
2017-Mar-22 06:33N 39°05' E 009°04'1 1.0
2017-Mar-22 05:31N 39°06' E 009°03'1 0.6
2017-Mar-22 04:33N 39°06' E 009°02'0 0.4
2017-Mar-22 03:31N 39°05' E 009°02'0 0.0
2017-Mar-22 02:31N 39°05' E 009°02'0 0.0
2017-Mar-22 01:34N 39°05' E 009°02'0 0.0
2017-Mar-22 00:33N 39°05' E 009°02'0 0.0
2017-Mar-21 23:33N 39°05' E 009°02'0 0.0
2017-Mar-21 22:32N 39°05' E 009°02'0 0.0
2017-Mar-21 21:32N 39°05' E 009°02'0 0.0
2017-Mar-21 20:31N 39°05' E 009°02'0 0.0
2017-Mar-21 19:31N 39°05' E 009°02'0 0.0
2017-Mar-21 18:30N 39°05' E 009°02'0 0.0
2017-Mar-21 17:33N 39°05' E 009°02'0 0.0
2017-Mar-21 16:33N 39°05' E 009°02'0 0.0
2017-Mar-21 15:32N 39°05' E 009°02'0 0.0
2017-Mar-21 14:32N 39°05' E 009°02'0 0.0
2017-Mar-21 13:31N 39°05' E 009°02'0 0.0
2017-Mar-21 12:31N 39°05' E 009°02'0 0.0
2017-Mar-21 11:33N 39°05' E 009°02'0 0.0
2017-Mar-21 10:33N 39°05' E 009°02'0 0.0
2017-Mar-21 09:33N 39°05' E 009°02'0 0.0
2017-Mar-21 08:32N 39°05' E 009°02'0 0.0
2017-Mar-21 07:32N 39°05' E 009°02'0 0.0
2017-Mar-21 06:31N 39°05' E 009°02'0 0.0
2017-Mar-21 05:31N 39°05' E 009°02'0 0.0
2017-Mar-21 04:33N 39°05' E 009°02'0 0.0
2017-Mar-21 03:33N 39°05' E 009°02'0 0.0
2017-Mar-21 02:32N 39°05' E 009°02'0 0.0
2017-Mar-21 01:32N 39°05' E 009°02'1 0.8
2017-Mar-21 00:33N 39°06' E 009°03'2 1.5
2017-Mar-20 23:29N 39°04' E 009°04'0 0.0
2017-Mar-20 22:32N 39°04' E 009°04'0 0.0
2017-Mar-20 21:31N 39°04' E 009°04'0 0.0
2017-Mar-20 20:31N 39°04' E 009°04'0 0.0
2017-Mar-20 19:30N 39°04' E 009°04'0 0.0
2017-Mar-20 18:33N 39°04' E 009°04'0 0.1
2017-Mar-20 17:32N 39°04' E 009°04'0 0.0
2017-Mar-20 16:32N 39°04' E 009°04'0 0.0
2017-Mar-20 15:32N 39°04' E 009°04'0 0.0
2017-Mar-20 14:31N 39°04' E 009°04'0 0.0
2017-Mar-20 13:31N 39°04' E 009°04'0 0.0
2017-Mar-20 12:33N 39°04' E 009°04'0 0.0
2017-Mar-20 11:33N 39°04' E 009°04'0 0.0
2017-Mar-20 10:29N 39°04' E 009°04'0 0.2
2017-Mar-20 09:32N 39°04' E 009°04'0 0.1
2017-Mar-20 08:31N 39°04' E 009°04'0 0.1
2017-Mar-20 07:31N 39°04' E 009°04'0 0.0
2017-Mar-20 06:31N 39°04' E 009°04'0 0.1
2017-Mar-20 05:33N 39°04' E 009°04'0 0.0
2017-Mar-20 04:33N 39°04' E 009°04'0 0.0
2017-Mar-20 03:32N 39°04' E 009°04'0 0.0
2017-Mar-20 02:32N 39°04' E 009°04'0 0.0
2017-Mar-20 01:31N 39°04' E 009°04'0 0.1
2017-Mar-20 00:31N 39°04' E 009°04'0 0.0
2017-Mar-19 23:31N 39°04' E 009°04'0 0.0
2017-Mar-19 22:33N 39°04' E 009°04'0 0.0
2017-Mar-19 21:33N 39°04' E 009°04'0 0.0
2017-Mar-19 20:32N 39°04' E 009°04'0 0.0
2017-Mar-19 19:32N 39°04' E 009°04'0 0.0
2017-Mar-19 18:31N 39°04' E 009°04'0 0.0
2017-Mar-19 17:31N 39°04' E 009°04'0 0.0
2017-Mar-19 16:31N 39°04' E 009°04'0 0.1
2017-Mar-19 15:33N 39°04' E 009°04'0 0.2
2017-Mar-19 14:33N 39°04' E 009°04'0 0.0
2017-Mar-19 13:32N 39°04' E 009°04'5 4.9
2017-Mar-19 12:33N 39°02' E 009°09'1312.6
2017-Mar-19 11:32N 38°56' E 009°23'9411.7
2017-Mar-19 03:33N 38°12' E 011°09'6011.9
2017-Mar-18 22:29N 37°40' E 012°15'  
Track history (hours):
 
Tides and Currents Weather Stations Pressure Air Temp Water Temp Dewpoint Dewpoint Depression Visibility Wind Speed Wind Dir Waves Ship Positions

Valle Di Andalusia

Last reported at 2017-Mar-28 21:34 UTC. Time now 2017-Mar-28 21:34 UTC.
Position N 51°10' E 001°54'.

Length 176 m; draft 9.6 m.

Type: Ship (hazmat cat D). MMSI: 247046200.

Date/timePositionNaut miles runAvg speedWind from/ knotsBaromVisibWave heightAir tempDewpointWater temp
2017-Mar-28 21:34N 51°10' E 001°54'1010.3
2017-Mar-28 20:33N 51°04' E 001°41'10 9.6
2017-Mar-28 19:34N 50°57' E 001°30'10 9.7
2017-Mar-28 18:33N 50°48' E 001°26'2410.3
2017-Mar-28 16:12N 50°30' E 001°00'711.1
2017-Mar-28 15:32N 50°28' E 000°49'2211.2
2017-Mar-28 13:33N 50°22' E 000°15'1211.5
2017-Mar-28 12:33N 50°19' W 000°02'1212.1
2017-Mar-28 11:33N 50°16' W 000°20'1313.1
2017-Mar-28 10:34N 50°13' W 000°40'3115.5
2017-Mar-28 08:33N 50°04' W 001°26'1716.7
2017-Mar-28 07:33N 49°60' W 001°52'4615.1
2017-Mar-28 04:30N 49°46' W 002°60'1313.6
2017-Mar-28 03:31N 49°39' W 003°18'8411.8
2017-Mar-27 20:25N 48°56' W 005°09'1011.6
2017-Mar-27 19:32N 48°51' W 005°22'1212.0
2017-Mar-27 18:32N 48°45' W 005°37'60013.1
2017-Mar-25 20:33N 39°14' W 009°57'1212.4
2017-Mar-25 19:33N 39°02' W 009°57'1312.7
2017-Mar-25 18:33N 38°49' W 009°57'1212.4
2017-Mar-25 17:33N 38°37' W 009°55'1212.3
2017-Mar-25 16:33N 38°25' W 009°52'1212.1
2017-Mar-25 15:33N 38°13' W 009°48'3511.7
2017-Mar-25 12:31N 37°39' W 009°38'21710.9
2017-Mar-24 16:33N 35°58' W 005°37'1211.8
2017-Mar-24 15:33N 36°01' W 005°23'  
2017-Mar-22 08:29N 38°48' E 008°49'1512.6
2017-Mar-22 07:20N 38°56' E 009°04'911.7
2017-Mar-22 06:33N 39°05' E 009°04'1 1.0
2017-Mar-22 05:31N 39°06' E 009°03'1 0.6
2017-Mar-22 04:33N 39°06' E 009°02'0 0.4
2017-Mar-22 03:31N 39°05' E 009°02'0 0.0
2017-Mar-22 02:31N 39°05' E 009°02'0 0.0
2017-Mar-22 01:34N 39°05' E 009°02'0 0.0
2017-Mar-22 00:33N 39°05' E 009°02'0 0.0
2017-Mar-21 23:33N 39°05' E 009°02'0 0.0
2017-Mar-21 22:32N 39°05' E 009°02'0 0.0
2017-Mar-21 21:32N 39°05' E 009°02'0 0.0
2017-Mar-21 20:31N 39°05' E 009°02'0 0.0
2017-Mar-21 19:31N 39°05' E 009°02'0 0.0
2017-Mar-21 18:30N 39°05' E 009°02'0 0.0
2017-Mar-21 17:33N 39°05' E 009°02'0 0.0
2017-Mar-21 16:33N 39°05' E 009°02'0 0.0
2017-Mar-21 15:32N 39°05' E 009°02'0 0.0
2017-Mar-21 14:32N 39°05' E 009°02'0 0.0
2017-Mar-21 13:31N 39°05' E 009°02'0 0.0
2017-Mar-21 12:31N 39°05' E 009°02'0 0.0
2017-Mar-21 11:33N 39°05' E 009°02'0 0.0
2017-Mar-21 10:33N 39°05' E 009°02'0 0.0
2017-Mar-21 09:33N 39°05' E 009°02'0 0.0
2017-Mar-21 08:32N 39°05' E 009°02'0 0.0
2017-Mar-21 07:32N 39°05' E 009°02'0 0.0
2017-Mar-21 06:31N 39°05' E 009°02'0 0.0
2017-Mar-21 05:31N 39°05' E 009°02'0 0.0
2017-Mar-21 04:33N 39°05' E 009°02'0 0.0
2017-Mar-21 03:33N 39°05' E 009°02'0 0.0
2017-Mar-21 02:32N 39°05' E 009°02'0 0.0
2017-Mar-21 01:32N 39°05' E 009°02'1 0.8
2017-Mar-21 00:33N 39°06' E 009°03'2 1.5
2017-Mar-20 23:29N 39°04' E 009°04'0 0.0
2017-Mar-20 22:32N 39°04' E 009°04'0 0.0
2017-Mar-20 21:31N 39°04' E 009°04'0 0.0
2017-Mar-20 20:31N 39°04' E 009°04'0 0.0
2017-Mar-20 19:30N 39°04' E 009°04'0 0.0
2017-Mar-20 18:33N 39°04' E 009°04'0 0.1
2017-Mar-20 17:32N 39°04' E 009°04'0 0.0
2017-Mar-20 16:32N 39°04' E 009°04'0 0.0
2017-Mar-20 15:32N 39°04' E 009°04'0 0.0
2017-Mar-20 14:31N 39°04' E 009°04'0 0.0
2017-Mar-20 13:31N 39°04' E 009°04'0 0.0
2017-Mar-20 12:33N 39°04' E 009°04'0 0.0
2017-Mar-20 11:33N 39°04' E 009°04'0 0.0
2017-Mar-20 10:29N 39°04' E 009°04'0 0.2
2017-Mar-20 09:32N 39°04' E 009°04'0 0.1
2017-Mar-20 08:31N 39°04' E 009°04'0 0.1
2017-Mar-20 07:31N 39°04' E 009°04'0 0.0
2017-Mar-20 06:31N 39°04' E 009°04'0 0.1
2017-Mar-20 05:33N 39°04' E 009°04'0 0.0
2017-Mar-20 04:33N 39°04' E 009°04'0 0.0
2017-Mar-20 03:32N 39°04' E 009°04'0 0.0
2017-Mar-20 02:32N 39°04' E 009°04'0 0.0
2017-Mar-20 01:31N 39°04' E 009°04'0 0.1
2017-Mar-20 00:31N 39°04' E 009°04'0 0.0
2017-Mar-19 23:31N 39°04' E 009°04'0 0.0
2017-Mar-19 22:33N 39°04' E 009°04'0 0.0
2017-Mar-19 21:33N 39°04' E 009°04'0 0.0
2017-Mar-19 20:32N 39°04' E 009°04'0 0.0
2017-Mar-19 19:32N 39°04' E 009°04'0 0.0
2017-Mar-19 18:31N 39°04' E 009°04'0 0.0
2017-Mar-19 17:31N 39°04' E 009°04'0 0.0
2017-Mar-19 16:31N 39°04' E 009°04'0 0.1
2017-Mar-19 15:33N 39°04' E 009°04'0 0.2
2017-Mar-19 14:33N 39°04' E 009°04'0 0.0
2017-Mar-19 13:32N 39°04' E 009°04'5 4.9
2017-Mar-19 12:33N 39°02' E 009°09'1312.6
2017-Mar-19 11:32N 38°56' E 009°23'9411.7
2017-Mar-19 03:33N 38°12' E 011°09'6011.9
2017-Mar-18 22:29N 37°40' E 012°15'  

Dump ship's entire track history